69FD weather

Unicorn Place Airport
Defuniak Springs, Florida, United States

Public forecast

Using degrees Fahrenheit for public forecast. Weather courtesy of forecast.io.

METAR (pilot weather report)

Closest report is Defuniak Springs Airport, 9.5 nm (17.7 km) SE. Retrieved 2017/10/21 12:35 UTC (12 minutes ago):

K54J 211235Z AUTO 09007KT 10SM CLR 18/17 A3017 RMK AO2 T01770167

TAF (pilot weather forecast)

Forecast is more than 6 hours old.

Closest forecast is Duke Field, 17.1 nm (31.6 km) SW. Retrieved 2017/10/21 01:06 UTC (12 hours ago):

TAF KEGI 210100Z 2101/2207 04005KT 9999 SCT040 BKN250 QNH3007INS BECMG 2114/2115 10010KT 9999 SCT035 BKN250 QNH3002INS BECMG 2122/2123 11006KT 9999 SCT025 BKN250 QNH3005INS TX28/2118Z TN15/2112Z FCST BY USAF WX MET TECH